createdAt,value
2022-12-04T00:02:18.655Z,19.80
2022-12-04T00:04:50.286Z,20.83
2022-12-04T00:07:21.849Z,19.59
2022-12-04T00:09:53.598Z,21.16
2022-12-04T00:12:25.372Z,20.47
2022-12-04T00:17:49.120Z,21.15
2022-12-04T00:20:21.132Z,20.80
2022-12-04T00:22:52.686Z,20.35
2022-12-04T00:25:24.211Z,20.40
2022-12-04T00:27:55.757Z,20.65
2022-12-04T00:30:27.347Z,20.35
2022-12-04T00:32:58.925Z,20.62
2022-12-04T00:35:30.465Z,20.38
2022-12-04T00:38:02.049Z,20.82
2022-12-04T00:40:33.651Z,20.60
2022-12-04T00:43:05.198Z,21.17
2022-12-04T00:45:36.758Z,21.09
2022-12-04T00:48:08.346Z,20.66
2022-12-04T00:50:40.411Z,20.65
2022-12-04T00:53:13.482Z,20.08
2022-12-04T00:55:45.105Z,20.85
2022-12-04T00:58:16.627Z,20.90
2022-12-04T01:00:48.201Z,21.13
2022-12-04T01:03:19.799Z,20.97
2022-12-04T01:05:51.356Z,21.40
2022-12-04T01:08:22.956Z,21.41
2022-12-04T01:10:54.536Z,21.58
2022-12-04T01:13:26.549Z,21.96
2022-12-04T01:15:58.180Z,21.47
2022-12-04T01:18:29.741Z,20.19
2022-12-04T01:21:01.315Z,21.34
2022-12-04T01:23:32.831Z,21.38
2022-12-04T01:26:04.602Z,21.23
2022-12-04T01:28:36.720Z,21.98
2022-12-04T01:31:12.137Z,21.70
2022-12-04T01:33:44.695Z,21.42
2022-12-04T01:36:20.052Z,21.41
2022-12-04T01:38:52.237Z,21.67
2022-12-04T01:41:27.505Z,21.85
2022-12-04T01:44:18.791Z,21.56
2022-12-04T01:46:55.748Z,21.22
2022-12-04T01:49:37.462Z,22.06
2022-12-04T01:52:23.670Z,21.95
2022-12-04T01:55:00.624Z,21.97
2022-12-04T01:57:32.872Z,21.21
2022-12-04T02:00:13.929Z,22.08
2022-12-04T02:02:47.391Z,22.34
2022-12-04T02:05:21.506Z,21.74
2022-12-04T02:07:59.333Z,21.56
2022-12-04T02:10:58.252Z,22.41
2022-12-04T02:13:47.509Z,22.46
2022-12-04T02:16:30.626Z,22.68
2022-12-04T02:19:28.958Z,22.00
2022-12-04T02:22:10.042Z,23.16
2022-12-04T02:24:59.677Z,22.83
2022-12-04T02:27:31.162Z,22.36
2022-12-04T02:30:11.242Z,21.70
2022-12-04T02:32:49.691Z,22.85
2022-12-04T02:35:30.796Z,22.59
2022-12-04T02:38:14.409Z,22.87
2022-12-04T02:41:03.729Z,23.48
2022-12-04T02:44:10.689Z,22.99
2022-12-04T02:46:47.891Z,23.24
2022-12-04T02:49:29.685Z,23.32
2022-12-04T02:52:06.856Z,22.52
2022-12-04T02:54:47.908Z,22.99
2022-12-04T02:57:27.991Z,22.96
2022-12-04T03:00:02.689Z,22.76
2022-12-04T03:02:49.598Z,22.75
2022-12-04T03:05:30.299Z,21.82
2022-12-04T03:08:10.624Z,22.61
2022-12-04T03:10:54.554Z,22.70
2022-12-04T03:13:46.338Z,22.75
2022-12-04T03:16:29.208Z,23.12
2022-12-04T03:19:21.819Z,23.34
2022-12-04T03:22:07.762Z,22.66
2022-12-04T03:24:48.028Z,23.76
2022-12-04T03:27:54.297Z,23.20
2022-12-04T03:30:36.092Z,23.49
2022-12-04T03:33:13.406Z,24.13
2022-12-04T03:35:53.420Z,24.01
2022-12-04T03:38:37.755Z,24.11
2022-12-04T03:41:42.718Z,24.31
2022-12-04T03:44:23.317Z,24.80
2022-12-04T03:47:01.876Z,24.81
2022-12-04T03:49:55.313Z,24.84
2022-12-04T03:52:43.963Z,24.94
2022-12-04T03:55:26.210Z,24.82
2022-12-04T03:58:04.658Z,25.24
2022-12-04T04:00:42.146Z,24.31
2022-12-04T04:03:20.691Z,24.94
2022-12-04T04:05:59.635Z,25.33
2022-12-04T04:08:37.298Z,25.03
2022-12-04T04:11:20.125Z,25.40
2022-12-04T04:13:59.016Z,25.43
2022-12-04T04:16:38.032Z,24.81
2022-12-04T04:19:15.373Z,24.56
2022-12-04T04:21:52.412Z,25.11
2022-12-04T04:24:50.366Z,25.49
2022-12-04T04:27:21.992Z,25.06
2022-12-04T04:29:54.708Z,25.81
2022-12-04T04:32:45.685Z,25.14
2022-12-04T04:35:50.710Z,25.39
2022-12-04T04:38:39.373Z,24.61
2022-12-04T04:41:32.356Z,25.18
2022-12-04T04:44:16.228Z,25.47
2022-12-04T04:46:54.984Z,24.93
2022-12-04T04:49:32.221Z,24.99
2022-12-04T04:52:04.489Z,24.65
2022-12-04T04:54:38.753Z,25.20
2022-12-04T04:57:10.376Z,24.18
2022-12-04T04:59:42.130Z,24.03
2022-12-04T05:02:13.849Z,23.74
2022-12-04T05:04:45.420Z,23.92
2022-12-04T05:07:17.036Z,24.47
2022-12-04T05:09:48.561Z,24.19
2022-12-04T05:12:20.267Z,23.96
2022-12-04T05:14:52.069Z,24.76
2022-12-04T05:17:23.696Z,24.09
2022-12-04T05:19:55.740Z,24.80
2022-12-04T05:22:33.222Z,24.75
2022-12-04T05:25:05.820Z,24.27
2022-12-04T05:27:37.469Z,25.11
2022-12-04T05:30:11.502Z,24.65
2022-12-04T05:32:43.243Z,24.67
2022-12-04T05:35:15.342Z,23.87
2022-12-04T05:37:47.431Z,24.77
2022-12-04T05:40:19.722Z,24.72
2022-12-04T05:42:51.432Z,24.21
2022-12-04T05:45:22.996Z,23.52
2022-12-04T05:47:54.653Z,24.00
2022-12-04T05:50:26.298Z,24.35
2022-12-04T05:52:57.967Z,23.84
2022-12-04T05:55:29.576Z,24.41
2022-12-04T05:58:01.933Z,23.92
2022-12-04T06:00:33.605Z,23.63
2022-12-04T06:03:05.637Z,24.18
2022-12-04T06:05:37.395Z,24.59
2022-12-04T06:08:09.515Z,23.86
2022-12-04T06:10:41.352Z,23.89
2022-12-04T06:13:13.024Z,23.52
2022-12-04T06:15:44.549Z,23.80
2022-12-04T06:18:16.146Z,23.43
2022-12-04T06:20:47.790Z,24.05
2022-12-04T06:23:19.574Z,23.27
2022-12-04T06:25:51.102Z,22.89
2022-12-04T06:28:22.675Z,22.55
2022-12-04T06:30:54.178Z,23.52
2022-12-04T06:33:25.843Z,23.59
2022-12-04T06:36:10.699Z,23.48
2022-12-04T06:38:43.325Z,23.11
2022-12-04T06:41:18.732Z,23.23
2022-12-04T06:43:51.357Z,23.18
2022-12-04T06:46:25.564Z,24.00
2022-12-04T06:48:59.585Z,23.54
2022-12-04T06:51:35.968Z,23.05
2022-12-04T06:54:07.920Z,23.07
2022-12-04T06:56:39.491Z,23.78
2022-12-04T06:59:11.090Z,23.63
2022-12-04T07:01:42.792Z,23.31
2022-12-04T07:04:14.558Z,22.49
2022-12-04T07:06:46.184Z,22.34
2022-12-04T07:09:18.290Z,22.99
2022-12-04T07:11:50.159Z,23.07
2022-12-04T07:14:21.759Z,22.99
2022-12-04T07:16:53.605Z,23.25
2022-12-04T07:19:25.295Z,22.90
2022-12-04T07:21:57.119Z,24.06
2022-12-04T07:24:28.667Z,23.56
2022-12-04T07:27:00.197Z,23.54
2022-12-04T07:29:31.816Z,24.54
2022-12-04T07:32:03.552Z,24.06
2022-12-04T07:34:35.149Z,24.41
2022-12-04T07:37:06.684Z,24.70
2022-12-04T07:39:38.232Z,24.68
2022-12-04T07:42:09.726Z,24.52
2022-12-04T07:44:41.227Z,25.11
2022-12-04T07:47:13.107Z,25.09
2022-12-04T07:49:44.578Z,24.99
2022-12-04T07:52:16.117Z,23.94
2022-12-04T07:54:47.934Z,25.63
2022-12-04T07:57:19.446Z,25.56
2022-12-04T07:59:50.962Z,25.02
2022-12-04T08:02:22.535Z,25.05
2022-12-04T08:04:54.046Z,25.77
2022-12-04T08:07:25.644Z,25.08
2022-12-04T08:09:57.310Z,26.41
2022-12-04T08:12:29.073Z,25.53
2022-12-04T08:15:00.734Z,26.38
2022-12-04T08:17:33.576Z,27.19
2022-12-04T08:20:05.938Z,26.04
2022-12-04T08:22:37.413Z,26.12
2022-12-04T08:25:09.081Z,27.97
2022-12-04T08:27:45.966Z,27.17
2022-12-04T08:30:18.913Z,26.72
2022-12-04T08:32:50.586Z,27.30
2022-12-04T08:35:22.190Z,27.84
2022-12-04T08:37:53.724Z,27.96
2022-12-04T08:40:25.251Z,27.95
2022-12-04T08:42:56.743Z,27.62
2022-12-04T08:45:28.255Z,27.22
2022-12-04T08:47:59.849Z,27.09
2022-12-04T08:50:31.380Z,26.89
2022-12-04T08:53:02.950Z,26.50
2022-12-04T08:55:35.077Z,26.61
2022-12-04T08:58:06.774Z,26.66
2022-12-04T09:00:38.495Z,26.79
2022-12-04T09:03:15.937Z,26.57
2022-12-04T09:05:48.216Z,26.52
2022-12-04T09:08:19.843Z,26.92
2022-12-04T09:10:51.427Z,27.67
2022-12-04T09:13:22.935Z,26.80
2022-12-04T09:15:54.597Z,27.16
2022-12-04T09:18:26.207Z,26.97
2022-12-04T09:20:59.568Z,27.94
2022-12-04T09:23:31.331Z,26.33
2022-12-04T09:26:04.236Z,26.93
2022-12-04T09:28:35.871Z,26.99
2022-12-04T09:31:07.477Z,26.31
2022-12-04T09:33:39.637Z,26.48
2022-12-04T09:36:13.375Z,24.47
2022-12-04T09:38:50.892Z,24.44
2022-12-04T09:41:33.781Z,24.05
2022-12-04T09:44:17.213Z,23.87
2022-12-04T09:46:51.182Z,24.97
2022-12-04T09:49:39.918Z,25.71
2022-12-04T09:52:48.484Z,25.42
2022-12-04T09:55:49.440Z,25.69
2022-12-04T09:58:33.792Z,26.03
2022-12-04T10:01:05.830Z,26.58
2022-12-04T10:03:37.444Z,26.30
2022-12-04T10:06:26.296Z,26.64
2022-12-04T10:09:16.238Z,27.02
2022-12-04T10:12:01.491Z,26.74
2022-12-04T10:14:57.377Z,27.93
2022-12-04T10:17:56.657Z,27.43
2022-12-04T10:20:58.896Z,28.07
2022-12-04T10:23:48.729Z,27.74
2022-12-04T10:26:28.531Z,26.73
2022-12-04T10:29:06.295Z,25.59
2022-12-04T10:31:41.459Z,24.55
2022-12-04T10:34:29.231Z,24.13
2022-12-04T10:37:11.569Z,23.98
2022-12-04T10:40:01.756Z,24.07
2022-12-04T10:42:42.314Z,23.47
2022-12-04T10:45:13.942Z,24.12
2022-12-04T10:47:50.401Z,23.10
2022-12-04T10:50:24.929Z,22.59
2022-12-04T10:52:56.716Z,23.49
2022-12-04T10:55:32.608Z,23.80
2022-12-04T10:58:15.368Z,23.22
2022-12-04T11:01:03.086Z,23.95
2022-12-04T11:03:35.366Z,24.13
2022-12-04T11:06:10.447Z,23.82
2022-12-04T11:08:49.197Z,24.79
2022-12-04T11:11:29.254Z,25.63
2022-12-04T11:14:06.384Z,24.42
2022-12-04T11:16:41.673Z,22.97
2022-12-04T11:19:34.319Z,23.44
2022-12-04T11:22:18.561Z,26.00
2022-12-04T11:24:56.481Z,28.77
2022-12-04T11:27:35.215Z,26.22
2022-12-04T11:30:16.116Z,23.98
2022-12-04T11:32:48.206Z,25.47
2022-12-04T11:35:27.292Z,27.97
2022-12-04T11:38:01.358Z,27.40
2022-12-04T11:40:34.669Z,25.92
2022-12-04T11:43:14.840Z,24.05
2022-12-04T11:46:04.666Z,25.25
2022-12-04T11:48:45.095Z,27.35
2022-12-04T11:51:41.267Z,27.40
2022-12-04T11:54:26.822Z,25.82
2022-12-04T11:57:24.680Z,25.59
2022-12-04T12:00:22.850Z,25.74
2022-12-04T12:03:23.377Z,26.44
2022-12-04T12:06:18.993Z,25.49
2022-12-04T12:09:20.077Z,25.40
2022-12-04T12:12:18.442Z,23.78
2022-12-04T12:15:27.360Z,21.63
2022-12-04T12:18:22.253Z,22.76
2022-12-04T12:21:15.985Z,23.43
2022-12-04T12:23:53.617Z,23.48
2022-12-04T12:26:40.175Z,24.01
2022-12-04T12:29:50.399Z,23.89
2022-12-04T12:32:35.549Z,24.64
2022-12-04T12:35:19.639Z,25.06
2022-12-04T12:37:54.968Z,23.73
2022-12-04T12:40:38.502Z,22.48
2022-12-04T12:43:10.165Z,24.50
2022-12-04T12:45:50.796Z,26.43
2022-12-04T12:48:58.659Z,26.61
2022-12-04T12:51:38.989Z,24.92
2022-12-04T12:54:33.373Z,26.73
2022-12-04T12:57:31.304Z,25.86
2022-12-04T13:00:22.613Z,25.09
2022-12-04T13:03:26.397Z,24.52
2022-12-04T13:06:05.128Z,23.58
2022-12-04T13:08:56.518Z,22.55
2022-12-04T13:11:30.763Z,21.89
2022-12-04T13:14:04.840Z,22.14
2022-12-04T13:17:02.831Z,21.80
2022-12-04T13:19:40.553Z,21.58
2022-12-04T13:22:24.118Z,20.82
2022-12-04T13:25:13.941Z,20.96
2022-12-04T13:28:15.059Z,20.20
2022-12-04T13:31:08.466Z,20.97
2022-12-04T13:33:49.329Z,21.12
2022-12-04T13:36:53.422Z,20.77
2022-12-04T13:39:40.059Z,20.87
2022-12-04T13:42:37.649Z,20.97
2022-12-04T13:45:27.344Z,20.78
2022-12-04T13:48:03.809Z,22.81
2022-12-04T13:50:39.515Z,23.94
2022-12-04T13:53:34.756Z,24.49
2022-12-04T13:56:23.665Z,22.77
2022-12-04T13:59:33.928Z,23.04
2022-12-04T14:02:29.859Z,22.54
2022-12-04T14:05:04.271Z,24.44
2022-12-04T14:07:42.817Z,25.52
2022-12-04T14:10:14.463Z,26.50
2022-12-04T14:13:02.072Z,28.72
2022-12-04T14:15:37.135Z,30.29
2022-12-04T14:18:11.393Z,30.76
2022-12-04T14:20:44.547Z,32.76
2022-12-04T14:23:16.296Z,33.53
2022-12-04T14:25:48.826Z,33.85
2022-12-04T14:28:42.013Z,34.74
2022-12-04T14:31:25.739Z,32.27
2022-12-04T14:34:23.599Z,32.06
2022-12-04T14:36:57.896Z,29.43
2022-12-04T14:39:37.520Z,27.24
2022-12-04T14:42:33.031Z,26.60
2022-12-04T14:45:32.548Z,26.64
2022-12-04T14:48:17.418Z,25.01
2022-12-04T14:50:57.552Z,24.69
2022-12-04T14:53:40.248Z,24.86
2022-12-04T14:56:23.476Z,24.20
2022-12-04T14:58:55.314Z,24.25
2022-12-04T15:01:36.315Z,24.10
2022-12-04T15:04:22.214Z,23.62
2022-12-04T15:07:00.001Z,23.43
2022-12-04T15:09:33.252Z,23.03
2022-12-04T15:12:25.149Z,23.01
2022-12-04T15:15:02.712Z,23.09
2022-12-04T15:17:34.280Z,21.40
2022-12-04T15:20:17.885Z,22.74
2022-12-04T15:22:49.960Z,21.74
2022-12-04T15:25:26.945Z,22.33
2022-12-04T15:28:21.448Z,22.21
2022-12-04T15:30:56.144Z,22.49
2022-12-04T15:33:34.330Z,22.53
2022-12-04T15:36:13.008Z,21.80
2022-12-04T15:38:48.593Z,21.44
2022-12-04T15:41:33.048Z,21.44
2022-12-04T15:44:49.590Z,20.77
2022-12-04T15:47:24.644Z,21.48
2022-12-04T15:50:27.340Z,21.63
2022-12-04T15:52:58.846Z,22.12
2022-12-04T15:55:36.552Z,22.00
2022-12-04T15:58:26.759Z,21.06
2022-12-04T16:01:10.318Z,21.91
2022-12-04T16:03:41.948Z,21.89
2022-12-04T16:06:15.728Z,22.03
2022-12-04T16:08:52.117Z,21.38
2022-12-04T16:11:37.027Z,21.27
2022-12-04T16:14:08.566Z,21.43
2022-12-04T16:16:44.485Z,21.17
2022-12-04T16:19:29.303Z,21.57
2022-12-04T16:22:03.807Z,21.40
2022-12-04T16:24:35.342Z,21.89
2022-12-04T16:27:15.746Z,22.25
2022-12-04T16:29:47.239Z,22.55
2022-12-04T16:32:21.722Z,23.99
2022-12-04T16:34:53.404Z,24.38
2022-12-04T16:37:27.353Z,24.58
2022-12-04T16:39:59.130Z,24.98
2022-12-04T16:42:30.729Z,24.34
2022-12-04T16:45:02.700Z,23.61
2022-12-04T16:47:34.210Z,23.64
2022-12-04T16:50:06.560Z,23.03
2022-12-04T16:52:38.051Z,22.90
2022-12-04T16:55:34.179Z,23.29
2022-12-04T16:58:06.523Z,22.92
2022-12-04T17:00:39.071Z,22.74
2022-12-04T17:03:32.075Z,22.93
2022-12-04T17:06:03.693Z,22.87
2022-12-04T17:08:35.220Z,23.76
2022-12-04T17:11:06.922Z,23.28
2022-12-04T17:13:38.486Z,24.44
2022-12-04T17:16:14.681Z,23.41
2022-12-04T17:18:46.708Z,24.19
2022-12-04T17:21:18.246Z,24.14
2022-12-04T17:23:49.804Z,23.96
2022-12-04T17:26:21.544Z,22.95
2022-12-04T17:28:53.751Z,22.89
2022-12-04T17:31:27.026Z,22.85
2022-12-04T17:33:58.527Z,22.80
2022-12-04T17:36:30.061Z,23.33
2022-12-04T17:39:01.712Z,22.72
2022-12-04T17:41:33.501Z,22.18
2022-12-04T17:44:05.026Z,22.79
2022-12-04T17:46:36.646Z,22.01
2022-12-04T17:49:08.303Z,22.03
2022-12-04T17:51:40.163Z,21.60
2022-12-04T17:54:12.384Z,21.53
2022-12-04T17:56:48.723Z,22.27
2022-12-04T17:59:21.928Z,21.61
2022-12-04T18:01:53.510Z,22.20
2022-12-04T18:04:25.102Z,21.72
2022-12-04T18:06:56.655Z,22.43
2022-12-04T18:09:28.402Z,22.26
2022-12-04T18:12:00.537Z,22.95
2022-12-04T18:14:32.224Z,22.60
2022-12-04T18:17:04.487Z,21.95
2022-12-04T18:19:36.486Z,21.88
2022-12-04T18:22:08.063Z,21.23
2022-12-04T18:24:39.789Z,21.93
2022-12-04T18:27:11.688Z,21.75
2022-12-04T18:29:43.330Z,22.96
2022-12-04T18:32:14.979Z,22.40
2022-12-04T18:34:46.731Z,22.74
2022-12-04T18:37:18.492Z,22.20
2022-12-04T18:39:50.136Z,22.08
2022-12-04T18:42:21.688Z,21.78
2022-12-04T18:44:53.367Z,22.92
2022-12-04T18:47:25.054Z,22.41
2022-12-04T18:49:56.945Z,22.00
2022-12-04T18:52:28.724Z,22.31
2022-12-04T18:55:00.355Z,22.57
2022-12-04T18:57:32.009Z,23.25
2022-12-04T19:00:05.026Z,23.21
2022-12-04T19:02:36.653Z,21.94
2022-12-04T19:05:08.538Z,22.92
2022-12-04T19:07:40.116Z,23.16
2022-12-04T19:10:12.023Z,22.77
2022-12-04T19:12:43.665Z,23.58
2022-12-04T19:15:15.255Z,23.50
2022-12-04T19:17:48.267Z,23.66
2022-12-04T19:20:19.843Z,23.32
2022-12-04T19:22:52.368Z,23.67
2022-12-04T19:25:23.870Z,24.23
2022-12-04T19:27:56.202Z,23.86
2022-12-04T19:30:28.007Z,24.24
2022-12-04T19:32:59.926Z,23.49
2022-12-04T19:35:31.635Z,23.27
2022-12-04T19:38:03.558Z,23.85
2022-12-04T19:40:35.411Z,23.34
2022-12-04T19:43:07.199Z,23.33
2022-12-04T19:45:38.922Z,22.63
2022-12-04T19:48:10.755Z,23.65
2022-12-04T19:50:42.394Z,23.94
2022-12-04T19:53:14.173Z,24.12
2022-12-04T19:55:45.868Z,24.33
2022-12-04T19:58:17.597Z,25.47
2022-12-04T20:00:49.225Z,25.60
2022-12-04T20:03:20.957Z,24.89
2022-12-04T20:05:52.662Z,25.16
2022-12-04T20:08:24.209Z,25.12
2022-12-04T20:10:55.915Z,26.20
2022-12-04T20:13:27.553Z,26.33
2022-12-04T20:16:04.262Z,26.30
2022-12-04T20:18:37.563Z,27.62
2022-12-04T20:21:11.309Z,27.44
2022-12-04T20:23:46.438Z,27.04
2022-12-04T20:26:20.793Z,27.28
2022-12-04T20:28:55.960Z,26.40
2022-12-04T20:31:37.052Z,26.66
2022-12-04T20:34:13.011Z,27.29
2022-12-04T20:36:47.423Z,27.68
2022-12-04T20:39:20.373Z,27.70
2022-12-04T20:41:52.120Z,27.05
2022-12-04T20:44:23.936Z,26.79
2022-12-04T20:46:55.836Z,26.58
2022-12-04T20:49:27.586Z,27.06
2022-12-04T20:51:59.332Z,26.85
2022-12-04T20:54:31.131Z,26.04
2022-12-04T20:57:02.856Z,25.92
2022-12-04T20:59:34.622Z,26.15
2022-12-04T21:02:06.544Z,26.21
2022-12-04T21:04:38.629Z,25.42
2022-12-04T21:07:10.532Z,25.35
2022-12-04T21:09:42.300Z,25.93
2022-12-04T21:12:14.174Z,25.02
2022-12-04T21:14:45.965Z,22.98
2022-12-04T21:17:19.473Z,19.11
2022-12-04T21:19:51.272Z,17.45
2022-12-04T21:22:22.920Z,13.80
2022-12-04T21:24:54.597Z,12.38
2022-12-04T21:27:26.417Z,10.85
2022-12-04T21:29:58.318Z,10.46
2022-12-04T21:32:30.153Z,9.96
2022-12-04T21:35:01.811Z,10.42
2022-12-04T21:37:33.517Z,11.57
2022-12-04T21:40:05.886Z,11.87
2022-12-04T21:42:37.575Z,10.98
2022-12-04T21:45:09.457Z,10.54
2022-12-04T21:47:41.091Z,10.67
2022-12-04T21:50:12.865Z,11.32
2022-12-04T21:52:44.562Z,11.32
2022-12-04T21:55:16.172Z,10.85
2022-12-04T21:57:48.126Z,10.61
2022-12-04T22:00:19.867Z,10.14
2022-12-04T22:02:53.599Z,9.93
2022-12-04T22:05:25.231Z,9.90
2022-12-04T22:07:56.884Z,9.26
2022-12-04T22:10:28.619Z,8.72
2022-12-04T22:13:00.352Z,8.20
2022-12-04T22:15:36.157Z,8.22
2022-12-04T22:18:12.844Z,8.55
2022-12-04T22:20:44.342Z,7.49
2022-12-04T22:23:16.047Z,7.43
2022-12-04T22:25:47.996Z,7.38
2022-12-04T22:28:19.540Z,7.39
2022-12-04T22:30:51.218Z,7.24
2022-12-04T22:33:22.825Z,6.28
2022-12-04T22:35:54.382Z,6.73
2022-12-04T22:38:25.948Z,6.40
2022-12-04T22:41:01.680Z,6.38
2022-12-04T22:43:40.558Z,6.49
2022-12-04T22:46:13.496Z,6.20
2022-12-04T22:48:46.047Z,5.91
2022-12-04T22:51:20.878Z,5.76
2022-12-04T22:53:54.818Z,6.00
2022-12-04T22:56:31.827Z,6.22
2022-12-04T22:59:03.401Z,6.05
2022-12-04T23:01:35.066Z,5.74
2022-12-04T23:04:06.699Z,6.66
2022-12-04T23:06:38.270Z,6.22
2022-12-04T23:09:15.050Z,6.07
2022-12-04T23:11:52.387Z,6.58
2022-12-04T23:14:24.385Z,6.13
2022-12-04T23:16:56.598Z,6.48
2022-12-04T23:19:28.213Z,6.27
2022-12-04T23:21:59.732Z,6.58
2022-12-04T23:24:31.264Z,6.46
2022-12-04T23:27:02.755Z,6.72
2022-12-04T23:29:52.898Z,6.95
2022-12-04T23:32:25.207Z,7.24
2022-12-04T23:34:56.779Z,7.20
2022-12-04T23:37:28.264Z,7.83
2022-12-04T23:40:00.010Z,7.10
2022-12-04T23:42:33.261Z,7.75
2022-12-04T23:45:05.258Z,7.47
2022-12-04T23:47:36.893Z,7.78
2022-12-04T23:50:08.574Z,7.53
2022-12-04T23:52:40.101Z,8.23
2022-12-04T23:55:11.700Z,9.03
2022-12-04T23:57:43.317Z,9.03
